createdAt,value
2018-04-08T00:00:55.995Z,0.00
2018-04-08T00:01:55.959Z,0.00
2018-04-08T00:02:55.948Z,0.00
2018-04-08T00:03:55.905Z,0.00
2018-04-08T00:04:55.946Z,0.00
2018-04-08T00:05:55.903Z,0.00
2018-04-08T00:06:55.880Z,0.00
2018-04-08T00:07:55.862Z,0.00
2018-04-08T00:08:55.814Z,0.00
2018-04-08T00:09:55.867Z,0.00
2018-04-08T00:10:55.799Z,0.00
2018-04-08T00:11:55.968Z,0.00
2018-04-08T00:12:56.219Z,0.00
2018-04-08T00:13:55.890Z,0.00
2018-04-08T00:14:55.682Z,0.00
2018-04-08T00:15:55.657Z,0.00
2018-04-08T00:16:55.709Z,0.00
2018-04-08T00:17:55.725Z,0.00
2018-04-08T00:18:56.599Z,0.00
2018-04-08T00:19:55.658Z,0.00
2018-04-08T00:20:55.587Z,0.00
2018-04-08T00:21:55.587Z,0.00
2018-04-08T00:22:55.811Z,0.00
2018-04-08T00:23:55.508Z,0.00
2018-04-08T00:24:55.566Z,0.00
2018-04-08T00:25:55.478Z,0.00
2018-04-08T00:26:55.547Z,0.00
2018-04-08T00:27:55.460Z,0.00
2018-04-08T00:28:55.412Z,0.00
2018-04-08T00:29:55.409Z,0.00
2018-04-08T00:30:55.467Z,0.00
2018-04-08T00:31:55.358Z,0.00
2018-04-08T00:32:55.380Z,0.00
2018-04-08T00:33:55.337Z,0.00
2018-04-08T00:34:55.319Z,0.00
2018-04-08T00:35:55.281Z,0.00
2018-04-08T00:36:55.221Z,0.00
2018-04-08T00:37:55.204Z,0.00
2018-04-08T00:38:55.188Z,0.00
2018-04-08T00:39:55.158Z,0.00
2018-04-08T00:40:55.200Z,0.00
2018-04-08T00:41:55.125Z,0.00
2018-04-08T00:42:55.126Z,0.00
2018-04-08T00:43:55.077Z,0.00
2018-04-08T00:44:55.045Z,0.00
2018-04-08T00:45:55.058Z,0.00
2018-04-08T00:46:55.076Z,0.00
2018-04-08T00:47:55.034Z,0.00
2018-04-08T00:48:54.978Z,0.00
2018-04-08T00:49:54.947Z,0.00
2018-04-08T00:50:54.976Z,0.00
2018-04-08T00:51:54.898Z,0.00
2018-04-08T00:52:54.902Z,0.00
2018-04-08T00:53:54.921Z,0.00
2018-04-08T00:54:54.842Z,0.00
2018-04-08T00:55:54.839Z,0.00
2018-04-08T00:56:54.944Z,0.00
2018-04-08T00:57:54.834Z,0.00
2018-04-08T00:58:54.779Z,0.00
2018-04-08T00:59:54.728Z,0.00
2018-04-08T01:00:54.735Z,0.00
2018-04-08T01:01:54.707Z,0.00
2018-04-08T01:02:54.688Z,0.00
2018-04-08T01:03:54.679Z,0.00
2018-04-08T01:04:54.683Z,0.00
2018-04-08T01:05:54.622Z,0.00
2018-04-08T01:06:54.595Z,0.00
2018-04-08T01:07:54.594Z,0.00
2018-04-08T01:08:54.541Z,0.00
2018-04-08T01:09:54.527Z,0.00
2018-04-08T01:10:54.499Z,0.00
2018-04-08T01:11:54.516Z,0.00
2018-04-08T01:12:54.471Z,0.00
2018-04-08T01:13:54.448Z,0.00
2018-04-08T01:14:54.433Z,0.00
2018-04-08T01:15:54.550Z,0.00
2018-04-08T01:16:54.389Z,0.00
2018-04-08T01:17:54.364Z,0.00
2018-04-08T01:18:54.325Z,0.00
2018-04-08T01:19:54.342Z,0.00
2018-04-08T01:20:54.316Z,0.00
2018-04-08T01:21:54.306Z,0.00
2018-04-08T01:22:54.299Z,0.00
2018-04-08T01:23:54.274Z,0.00
2018-04-08T01:24:54.242Z,0.00
2018-04-08T01:25:54.252Z,0.00
2018-04-08T01:26:54.237Z,0.00
2018-04-08T01:27:54.135Z,0.00
2018-04-08T01:28:54.177Z,0.00
2018-04-08T01:29:54.095Z,0.00
2018-04-08T01:30:54.103Z,0.00
2018-04-08T01:31:54.055Z,0.00
2018-04-08T01:32:54.056Z,0.00
2018-04-08T01:33:54.051Z,0.00
2018-04-08T01:34:54.028Z,0.00
2018-04-08T01:35:53.978Z,0.00
2018-04-08T01:36:54.039Z,0.00
2018-04-08T01:37:53.923Z,0.00
2018-04-08T01:38:54.113Z,0.00
2018-04-08T01:39:53.906Z,0.00
2018-04-08T01:40:53.948Z,0.00
2018-04-08T01:41:54.058Z,0.00
2018-04-08T01:42:55.586Z,0.00
2018-04-08T01:43:53.799Z,0.00
2018-04-08T01:44:53.793Z,0.00
2018-04-08T01:45:53.800Z,0.00
2018-04-08T01:46:53.747Z,0.00
2018-04-08T01:47:53.704Z,0.00
2018-04-08T01:48:53.711Z,0.00
2018-04-08T01:49:53.737Z,0.00
2018-04-08T01:50:53.690Z,0.00
2018-04-08T01:51:53.668Z,0.00
2018-04-08T01:52:53.639Z,0.00
2018-04-08T01:53:53.632Z,0.00
2018-04-08T01:54:53.583Z,0.00
2018-04-08T01:55:53.571Z,0.00
2018-04-08T01:56:53.512Z,0.00
2018-04-08T01:57:53.493Z,0.00
2018-04-08T01:58:53.483Z,0.00
2018-04-08T01:59:53.459Z,0.00
2018-04-08T02:00:53.519Z,0.00
2018-04-08T02:01:53.519Z,0.00
2018-04-08T02:02:53.400Z,0.00
2018-04-08T02:03:54.078Z,0.00
2018-04-08T02:04:53.373Z,0.00
2018-04-08T02:05:53.337Z,0.00
2018-04-08T02:06:53.337Z,0.00
2018-04-08T02:07:53.353Z,0.00
2018-04-08T02:08:53.328Z,0.00
2018-04-08T02:09:53.279Z,0.00
2018-04-08T02:10:53.251Z,0.00
2018-04-08T02:11:53.237Z,0.00
2018-04-08T02:12:53.195Z,0.00
2018-04-08T02:13:53.171Z,0.00
2018-04-08T02:14:55.057Z,0.00
2018-04-08T02:15:53.141Z,0.00
2018-04-08T02:16:53.123Z,0.00
2018-04-08T02:17:53.101Z,0.00
2018-04-08T02:18:53.088Z,0.00
2018-04-08T02:19:53.025Z,0.00
2018-04-08T02:20:53.038Z,0.00
2018-04-08T02:21:53.066Z,0.00
2018-04-08T02:22:52.994Z,0.00
2018-04-08T02:23:53.020Z,0.00
2018-04-08T02:24:52.917Z,0.00
2018-04-08T02:25:52.933Z,0.00
2018-04-08T02:26:52.879Z,0.00
2018-04-08T02:27:52.894Z,0.00
2018-04-08T02:28:52.831Z,0.00
2018-04-08T02:29:52.868Z,0.00
2018-04-08T02:30:52.807Z,0.00
2018-04-08T02:31:52.813Z,0.00
2018-04-08T02:32:52.744Z,0.00
2018-04-08T02:33:52.780Z,0.00
2018-04-08T02:34:52.770Z,0.00
2018-04-08T02:35:52.712Z,0.00
2018-04-08T02:36:52.657Z,0.00
2018-04-08T02:37:52.711Z,0.00
2018-04-08T02:38:52.638Z,0.00
2018-04-08T02:39:52.630Z,0.00
2018-04-08T02:40:52.599Z,0.00
2018-04-08T02:41:52.559Z,0.00
2018-04-08T02:42:52.565Z,0.00
2018-04-08T02:43:52.532Z,0.00
2018-04-08T02:44:52.515Z,0.00
2018-04-08T02:45:52.471Z,0.00
2018-04-08T02:46:52.511Z,0.00
2018-04-08T02:47:52.465Z,0.00
2018-04-08T02:48:52.410Z,0.00
2018-04-08T02:49:52.415Z,0.00
2018-04-08T02:50:52.366Z,0.00
2018-04-08T02:51:52.395Z,0.00
2018-04-08T02:52:52.317Z,0.00
2018-04-08T02:53:52.326Z,0.00
2018-04-08T02:54:52.289Z,0.00
2018-04-08T02:55:53.090Z,0.00
2018-04-08T02:56:52.261Z,0.00
2018-04-08T02:57:52.201Z,0.00
2018-04-08T02:58:52.233Z,0.00
2018-04-08T02:59:52.154Z,0.00
2018-04-08T03:00:52.154Z,0.00
2018-04-08T03:01:52.121Z,0.00
2018-04-08T03:02:52.092Z,0.00
2018-04-08T03:03:52.147Z,0.00
2018-04-08T03:04:52.081Z,0.00
2018-04-08T03:05:52.182Z,0.00
2018-04-08T03:06:52.037Z,0.00
2018-04-08T03:07:52.043Z,0.00
2018-04-08T03:08:51.965Z,0.00
2018-04-08T03:09:51.962Z,0.00
2018-04-08T03:10:51.948Z,0.00
2018-04-08T03:11:51.910Z,0.00
2018-04-08T03:12:51.918Z,0.00
2018-04-08T03:13:51.995Z,0.00
2018-04-08T03:14:51.845Z,0.00
2018-04-08T03:15:51.841Z,0.00
2018-04-08T03:16:51.805Z,0.00
2018-04-08T03:17:51.764Z,0.00
2018-04-08T03:18:51.751Z,0.00
2018-04-08T03:19:51.730Z,0.00
2018-04-08T03:20:51.725Z,0.00
2018-04-08T03:21:51.697Z,0.00
2018-04-08T03:22:51.713Z,0.00
2018-04-08T03:23:51.704Z,0.00
2018-04-08T03:24:51.679Z,0.00
2018-04-08T03:25:51.603Z,0.00
2018-04-08T03:26:51.604Z,0.00
2018-04-08T03:27:51.592Z,0.00
2018-04-08T03:28:51.543Z,0.00
2018-04-08T03:29:51.531Z,0.00
2018-04-08T03:30:51.516Z,0.00
2018-04-08T03:31:51.471Z,0.00
2018-04-08T03:32:51.484Z,0.00
2018-04-08T03:33:51.446Z,0.00
2018-04-08T03:34:51.394Z,0.00
2018-04-08T03:35:51.386Z,0.00
2018-04-08T03:36:51.407Z,0.00
2018-04-08T03:37:51.350Z,0.00
2018-04-08T03:38:51.316Z,0.00
2018-04-08T03:39:51.288Z,0.00
2018-04-08T03:40:51.297Z,0.00
2018-04-08T03:41:51.260Z,0.00
2018-04-08T03:42:51.253Z,0.00
2018-04-08T03:43:51.265Z,0.00
2018-04-08T03:44:51.192Z,0.00
2018-04-08T03:45:51.245Z,0.00
2018-04-08T03:46:51.187Z,0.00
2018-04-08T03:47:51.151Z,0.00
2018-04-08T03:48:51.103Z,0.00
2018-04-08T03:49:51.083Z,0.00
2018-04-08T03:50:51.093Z,0.00
2018-04-08T03:51:51.051Z,0.00
2018-04-08T03:52:51.034Z,0.00
2018-04-08T03:53:51.003Z,0.00
2018-04-08T03:54:51.011Z,0.00
2018-04-08T03:55:50.958Z,0.00
2018-04-08T03:56:50.938Z,0.00
2018-04-08T03:57:50.945Z,0.00
2018-04-08T03:58:50.875Z,0.00
2018-04-08T03:59:50.888Z,0.00
2018-04-08T04:00:50.877Z,0.00
2018-04-08T04:01:50.837Z,0.00
2018-04-08T04:02:50.822Z,0.00
2018-04-08T04:03:50.765Z,0.00
2018-04-08T04:04:50.777Z,0.00
2018-04-08T04:05:50.747Z,0.00
2018-04-08T04:06:50.747Z,0.00
2018-04-08T04:07:50.682Z,0.00
2018-04-08T04:08:50.702Z,0.00
2018-04-08T04:09:50.666Z,0.00
2018-04-08T04:10:50.654Z,0.00
2018-04-08T04:11:50.619Z,0.00
2018-04-08T04:12:50.579Z,4.00
2018-04-08T04:13:50.555Z,4.00
2018-04-08T04:14:50.526Z,0.00
2018-04-08T04:15:50.535Z,4.00
2018-04-08T04:16:50.514Z,4.00
2018-04-08T04:17:50.520Z,4.00
2018-04-08T04:18:50.498Z,8.00
2018-04-08T04:19:50.425Z,8.00
2018-04-08T04:20:50.422Z,8.00
2018-04-08T04:21:50.437Z,8.00
2018-04-08T04:22:50.403Z,12.00
2018-04-08T04:23:50.320Z,16.00
2018-04-08T04:24:50.329Z,16.00
2018-04-08T04:25:50.298Z,20.00
2018-04-08T04:26:50.332Z,24.00
2018-04-08T04:27:50.242Z,28.00
2018-04-08T04:28:50.248Z,32.00
2018-04-08T04:29:51.127Z,36.00
2018-04-08T04:30:50.189Z,44.00
2018-04-08T04:31:50.190Z,48.00
2018-04-08T04:32:50.124Z,56.00
2018-04-08T04:33:50.136Z,60.00
2018-04-08T04:34:50.139Z,72.00
2018-04-08T04:35:50.124Z,80.00
2018-04-08T04:36:50.043Z,92.00
2018-04-08T04:37:50.029Z,108.00
2018-04-08T04:38:49.999Z,120.00
2018-04-08T04:39:50.028Z,132.00
2018-04-08T04:40:49.947Z,144.00
2018-04-08T04:41:49.964Z,164.00
2018-04-08T04:42:49.944Z,180.00
2018-04-08T04:43:49.945Z,196.00
2018-04-08T04:44:49.860Z,216.00
2018-04-08T04:45:49.944Z,236.00
2018-04-08T04:46:49.863Z,256.00
2018-04-08T04:47:49.806Z,284.00
2018-04-08T04:48:49.868Z,308.00
2018-04-08T04:49:49.788Z,328.00
2018-04-08T04:50:49.747Z,360.00
2018-04-08T04:51:49.734Z,384.00
2018-04-08T04:52:49.720Z,416.00
2018-04-08T04:53:49.694Z,444.00
2018-04-08T04:54:49.663Z,476.00
2018-04-08T04:55:49.630Z,512.00
2018-04-08T04:56:49.612Z,540.00
2018-04-08T04:57:49.623Z,576.00
2018-04-08T04:58:49.554Z,608.00
2018-04-08T04:59:49.539Z,644.00
2018-04-08T05:00:49.529Z,680.00
2018-04-08T05:01:49.498Z,716.00
2018-04-08T05:02:49.500Z,756.00
2018-04-08T05:03:49.445Z,792.00
2018-04-08T05:04:49.452Z,828.00
2018-04-08T05:05:49.412Z,868.00
2018-04-08T05:06:49.392Z,908.00
2018-04-08T05:07:49.406Z,944.00
2018-04-08T05:08:49.350Z,980.00
2018-04-08T05:09:49.321Z,1024.00
2018-04-08T05:10:49.304Z,1060.00
2018-04-08T05:11:49.283Z,1100.00
2018-04-08T05:12:49.270Z,1140.00
2018-04-08T05:13:49.298Z,1180.00
2018-04-08T05:14:49.205Z,1220.00
2018-04-08T05:15:49.234Z,1256.00
2018-04-08T05:16:49.171Z,1296.00
2018-04-08T05:17:49.162Z,1336.00
2018-04-08T05:18:49.132Z,1372.00
2018-04-08T05:19:49.096Z,1416.00
2018-04-08T05:20:49.081Z,1452.00
2018-04-08T05:21:49.054Z,1492.00
2018-04-08T05:22:49.055Z,1528.00
2018-04-08T05:23:48.999Z,1568.00
2018-04-08T05:24:49.007Z,1604.00
2018-04-08T05:25:48.964Z,1644.00
2018-04-08T05:26:48.941Z,1680.00
2018-04-08T05:27:48.950Z,1720.00
2018-04-08T05:28:48.895Z,1756.00
2018-04-08T05:29:48.901Z,1796.00
2018-04-08T05:30:48.859Z,1832.00
2018-04-08T05:31:48.837Z,1868.00
2018-04-08T05:32:48.819Z,1904.00
2018-04-08T05:33:48.873Z,1944.00
2018-04-08T05:34:48.773Z,1980.00
2018-04-08T05:35:48.787Z,2016.00
2018-04-08T05:36:48.753Z,2052.00
2018-04-08T05:37:48.775Z,2088.00
2018-04-08T05:38:48.704Z,2132.00
2018-04-08T05:39:48.810Z,2168.00
2018-04-08T05:40:48.678Z,2204.00
2018-04-08T05:41:48.621Z,2248.00
2018-04-08T05:42:48.628Z,2284.00
2018-04-08T05:43:48.595Z,2320.00
2018-04-08T05:44:48.547Z,2360.00
2018-04-08T05:45:48.538Z,2396.00
2018-04-08T05:46:48.498Z,2436.00
2018-04-08T05:47:48.518Z,2480.00
2018-04-08T05:48:48.497Z,2520.00
2018-04-08T05:49:48.461Z,2560.00
2018-04-08T05:50:48.436Z,2600.00
2018-04-08T05:51:48.389Z,2640.00
2018-04-08T05:52:48.391Z,2680.00
2018-04-08T05:53:48.426Z,2720.00
2018-04-08T05:54:48.369Z,2756.00
2018-04-08T05:55:48.314Z,2800.00
2018-04-08T05:56:48.309Z,2840.00
2018-04-08T05:57:48.313Z,2880.00
2018-04-08T05:58:48.272Z,2924.00
2018-04-08T05:59:48.253Z,2972.00
2018-04-08T06:00:48.208Z,3012.00
2018-04-08T06:01:48.218Z,3056.00
2018-04-08T06:02:48.160Z,3104.00
2018-04-08T06:03:48.180Z,3152.00
2018-04-08T06:04:48.159Z,3208.00
2018-04-08T06:05:48.129Z,3272.00
2018-04-08T06:06:48.113Z,3332.00
2018-04-08T06:07:48.093Z,3392.00
2018-04-08T06:08:48.051Z,3576.00
2018-04-08T06:09:48.026Z,3880.00
2018-04-08T06:10:48.010Z,3944.00
2018-04-08T06:11:47.974Z,3880.00
2018-04-08T06:12:47.970Z,3984.00
2018-04-08T06:13:47.930Z,4188.00
2018-04-08T06:14:47.907Z,4748.00
2018-04-08T06:15:47.895Z,5780.00
2018-04-08T06:16:47.904Z,7644.00
2018-04-08T06:17:47.835Z,9628.00
2018-04-08T06:18:47.853Z,10324.00
2018-04-08T06:19:47.796Z,10336.00
2018-04-08T06:20:47.858Z,10328.00
2018-04-08T06:21:47.819Z,11024.00
2018-04-08T06:22:47.780Z,12284.00
2018-04-08T06:23:47.736Z,12608.00
2018-04-08T06:24:47.719Z,11076.00
2018-04-08T06:25:47.690Z,9484.00
2018-04-08T06:26:47.651Z,9100.00
2018-04-08T06:27:47.713Z,8880.00
2018-04-08T06:28:47.601Z,9384.00
2018-04-08T06:29:47.600Z,11712.00
2018-04-08T06:30:47.568Z,13600.00
2018-04-08T06:31:47.654Z,13708.00
2018-04-08T06:32:48.140Z,12936.00
2018-04-08T06:33:47.552Z,11436.00
2018-04-08T06:34:47.497Z,11408.00
2018-04-08T06:35:47.488Z,13820.00
2018-04-08T06:36:47.465Z,17152.00
2018-04-08T06:37:47.449Z,17568.00
2018-04-08T06:38:47.476Z,16608.00
2018-04-08T06:39:47.388Z,15456.00
2018-04-08T06:40:47.380Z,16576.00
2018-04-08T06:41:47.405Z,16448.00
2018-04-08T06:42:47.359Z,17568.00
2018-04-08T06:43:47.324Z,18880.00
2018-04-08T06:44:47.324Z,15648.00
2018-04-08T06:45:47.342Z,17632.00
2018-04-08T06:46:47.322Z,18208.00
2018-04-08T06:47:47.291Z,14688.00
2018-04-08T06:48:47.229Z,15392.00
2018-04-08T06:49:47.211Z,13844.00
2018-04-08T06:50:47.263Z,11308.00
2018-04-08T06:51:47.182Z,12232.00
2018-04-08T06:52:47.171Z,12716.00
2018-04-08T06:53:47.184Z,14912.00
2018-04-08T06:54:47.139Z,10836.00
2018-04-08T06:55:47.142Z,8072.00
2018-04-08T06:56:47.109Z,13876.00
2018-04-08T06:57:47.088Z,16832.00
2018-04-08T06:58:47.044Z,13272.00
2018-04-08T06:59:47.058Z,14336.00
2018-04-08T07:00:47.206Z,15360.00
2018-04-08T07:01:47.074Z,15424.00
2018-04-08T07:02:47.096Z,20320.00
2018-04-08T07:03:46.998Z,24864.00
2018-04-08T07:04:47.008Z,26496.00
2018-04-08T07:05:46.928Z,26208.00
2018-04-08T07:06:46.945Z,22336.00
2018-04-08T07:07:47.007Z,16096.00
2018-04-08T07:08:47.677Z,14184.00
2018-04-08T07:09:46.985Z,15456.00
2018-04-08T07:10:46.872Z,17120.00
2018-04-08T07:11:46.857Z,20864.00
2018-04-08T07:12:46.846Z,20800.00
2018-04-08T07:13:46.809Z,20128.00
2018-04-08T07:14:46.878Z,24992.00
2018-04-08T07:15:46.803Z,28224.00
2018-04-08T07:16:46.791Z,28576.00
2018-04-08T07:17:46.722Z,28608.00
2018-04-08T07:18:46.752Z,25152.00
2018-04-08T07:19:46.722Z,26112.00
2018-04-08T07:20:46.690Z,36288.00
2018-04-08T07:23:37.838Z,34080.00
2018-04-08T07:26:12.825Z,29984.00
2018-04-08T07:27:07.240Z,30880.00
2018-04-08T07:28:06.663Z,33056.00
2018-04-08T07:29:07.681Z,35552.00
2018-04-08T07:30:05.939Z,47616.00
2018-04-08T07:31:06.420Z,59840.00
2018-04-08T07:32:06.192Z,60576.00
2018-04-08T07:33:06.683Z,47296.00
2018-04-08T07:34:06.285Z,40992.00
2018-04-08T07:35:06.298Z,39776.00
2018-04-08T07:36:05.835Z,40000.00
2018-04-08T07:37:05.928Z,40128.00
2018-04-08T07:38:10.641Z,39712.00
2018-04-08T07:39:08.019Z,36320.00
2018-04-08T07:40:06.700Z,34944.00
2018-04-08T07:41:22.150Z,38752.00
2018-04-08T07:42:05.852Z,39488.00
2018-04-08T07:43:09.371Z,40544.00
2018-04-08T07:44:05.641Z,41504.00
2018-04-08T07:45:05.639Z,42432.00
2018-04-08T07:46:05.696Z,42432.00
2018-04-08T07:47:05.630Z,42400.00
2018-04-08T07:48:05.627Z,44640.00
2018-04-08T07:49:05.583Z,45728.00
2018-04-08T07:50:05.590Z,45696.00
2018-04-08T07:51:05.565Z,45120.00
2018-04-08T07:52:05.588Z,44896.00
2018-04-08T07:53:05.568Z,45504.00
2018-04-08T07:54:05.535Z,45344.00
2018-04-08T07:55:05.571Z,46464.00
2018-04-08T07:56:05.551Z,48480.00
2018-04-08T07:57:05.543Z,48704.00
2018-04-08T07:58:05.494Z,48448.00
2018-04-08T07:59:05.522Z,48288.00
2018-04-08T08:00:05.474Z,50688.00
2018-04-08T08:01:05.500Z,51168.00
2018-04-08T08:02:05.490Z,49888.00
2018-04-08T08:03:05.481Z,49600.00
2018-04-08T08:04:05.533Z,51040.00
2018-04-08T08:05:05.504Z,54240.00
2018-04-08T08:06:05.433Z,55744.00
2018-04-08T08:07:05.422Z,55264.00
2018-04-08T08:08:06.427Z,54592.00
2018-04-08T08:09:05.482Z,55712.00
2018-04-08T08:10:05.426Z,55424.00
2018-04-08T08:11:05.496Z,54368.00
2018-04-08T08:12:05.400Z,54656.00
2018-04-08T08:13:05.391Z,55104.00
2018-04-08T08:14:05.384Z,53216.00
2018-04-08T08:15:05.402Z,48864.00
2018-04-08T08:16:05.448Z,49920.00
2018-04-08T08:17:05.550Z,53824.00
2018-04-08T08:18:05.367Z,55616.00
2018-04-08T08:19:05.366Z,56256.00
2018-04-08T08:20:05.327Z,57664.00
2018-04-08T08:21:05.360Z,57024.00
2018-04-08T08:22:05.343Z,55680.00
2018-04-08T08:23:05.351Z,55744.00
2018-04-08T08:24:05.331Z,57056.00
2018-04-08T08:25:05.317Z,57472.00
2018-04-08T08:26:05.322Z,57568.00
2018-04-08T08:27:05.304Z,59072.00
2018-04-08T08:28:05.309Z,59808.00
2018-04-08T08:29:05.296Z,58112.00
2018-04-08T08:30:05.289Z,58368.00
2018-04-08T08:31:05.302Z,63552.00
2018-04-08T08:32:05.486Z,66656.00
2018-04-08T08:33:05.312Z,68416.00
2018-04-08T08:34:05.314Z,68416.00
2018-04-08T08:35:05.267Z,68608.00
2018-04-08T08:36:05.298Z,69728.00
2018-04-08T08:37:05.301Z,68864.00
2018-04-08T08:38:05.270Z,67008.00
2018-04-08T08:39:05.251Z,62240.00
2018-04-08T08:40:05.261Z,63904.00
2018-04-08T08:41:05.307Z,70784.00
2018-04-08T08:42:05.207Z,70848.00
2018-04-08T08:43:05.229Z,70400.00
2018-04-08T08:44:05.260Z,72352.00
2018-04-08T08:45:05.269Z,75456.00
2018-04-08T08:46:05.243Z,75968.00
2018-04-08T08:47:05.256Z,74016.00
2018-04-08T08:48:05.217Z,74784.00
2018-04-08T08:49:05.272Z,74112.00
2018-04-08T08:50:05.200Z,71040.00
2018-04-08T08:51:05.219Z,69216.00
2018-04-08T08:52:05.213Z,72384.00
2018-04-08T08:53:05.186Z,74816.00
2018-04-08T08:54:05.198Z,73024.00
2018-04-08T08:55:05.226Z,73664.00
2018-04-08T08:56:05.263Z,74304.00
2018-04-08T08:57:05.231Z,75040.00
2018-04-08T08:58:05.180Z,75328.00
2018-04-08T09:01:40.415Z,73120.00
2018-04-08T09:02:31.065Z,70912.00
2018-04-08T09:03:29.683Z,68640.00
2018-04-08T09:04:29.771Z,69088.00
2018-04-08T09:05:28.858Z,71744.00
2018-04-08T09:06:30.113Z,74752.00
2018-04-08T09:07:30.048Z,74880.00
2018-04-08T09:10:02.817Z,67744.00
2018-04-08T09:11:03.329Z,67968.00
2018-04-08T09:12:02.297Z,69568.00
2018-04-08T09:13:02.340Z,72992.00
2018-04-08T09:14:02.884Z,77216.00
2018-04-08T09:15:02.846Z,74688.00
2018-04-08T09:16:02.851Z,72896.00
2018-04-08T09:17:02.779Z,76384.00
2018-04-08T09:18:02.913Z,82752.00
2018-04-08T09:19:02.831Z,81408.00
2018-04-08T09:20:02.118Z,75168.00
2018-04-08T09:21:02.258Z,79008.00
2018-04-08T09:22:02.171Z,85312.00
2018-04-08T09:23:02.121Z,84928.00
2018-04-08T09:24:02.113Z,83488.00
2018-04-08T09:25:02.109Z,84768.00
2018-04-08T09:26:02.199Z,85024.00
2018-04-08T09:27:02.131Z,85248.00
2018-04-08T09:28:02.112Z,88224.00
2018-04-08T09:29:02.128Z,89248.00
2018-04-08T09:30:02.106Z,87776.00
2018-04-08T09:31:02.121Z,88960.00
2018-04-08T09:32:02.198Z,87616.00
2018-04-08T09:33:02.094Z,85120.00
2018-04-08T09:34:02.273Z,83872.00
2018-04-08T09:35:02.151Z,81952.00
2018-04-08T09:36:02.132Z,80544.00
2018-04-08T09:37:02.089Z,82880.00
2018-04-08T09:38:02.165Z,83168.00
2018-04-08T09:39:03.632Z,78304.00
2018-04-08T09:40:02.178Z,77920.00
2018-04-08T09:41:02.156Z,85920.00
2018-04-08T09:42:02.208Z,89824.00
2018-04-08T09:43:02.143Z,88448.00
2018-04-08T09:44:02.165Z,88352.00
2018-04-08T09:45:02.139Z,88032.00
2018-04-08T09:46:02.134Z,84576.00
2018-04-08T09:47:02.192Z,86688.00
2018-04-08T09:48:02.203Z,90432.00
2018-04-08T09:49:02.289Z,89984.00
2018-04-08T09:50:02.163Z,91168.00
2018-04-08T09:51:02.203Z,91616.00
2018-04-08T09:52:02.166Z,91072.00
2018-04-08T09:53:02.192Z,87488.00
2018-04-08T09:54:02.141Z,84832.00
2018-04-08T09:55:02.249Z,87392.00
2018-04-08T09:56:02.231Z,83552.00
2018-04-08T09:57:02.825Z,79808.00
2018-04-08T09:58:02.178Z,85152.00
2018-04-08T09:59:02.195Z,92128.00
2018-04-08T10:00:03.159Z,96864.00
2018-04-08T10:01:02.180Z,97760.00
2018-04-08T10:02:02.172Z,96320.00
2018-04-08T10:03:02.229Z,95456.00
2018-04-08T10:04:02.310Z,94784.00
2018-04-08T10:05:02.232Z,94272.00
2018-04-08T10:06:02.309Z,89536.00
2018-04-08T10:07:02.259Z,90592.00
2018-04-08T10:08:02.221Z,94208.00
2018-04-08T10:09:02.239Z,97696.00
2018-04-08T10:10:02.289Z,97664.00
2018-04-08T10:11:02.251Z,96288.00
2018-04-08T10:12:02.304Z,94208.00
2018-04-08T10:13:02.201Z,89248.00
2018-04-08T10:14:02.229Z,90656.00
2018-04-08T10:15:02.253Z,93856.00
2018-04-08T10:16:02.429Z,94272.00
2018-04-08T10:17:02.201Z,91648.00
2018-04-08T10:18:02.253Z,94176.00
2018-04-08T10:19:03.140Z,91360.00
2018-04-08T10:20:02.246Z,85504.00
2018-04-08T10:21:02.244Z,89952.00
2018-04-08T10:22:02.254Z,94336.00
2018-04-08T10:23:02.263Z,90048.00
2018-04-08T10:24:02.278Z,89568.00
2018-04-08T10:25:02.319Z,90592.00
2018-04-08T10:26:02.272Z,90720.00
2018-04-08T10:27:02.348Z,92320.00
2018-04-08T10:28:02.315Z,92608.00
2018-04-08T10:29:02.280Z,93760.00
2018-04-08T10:30:02.276Z,95968.00
2018-04-08T10:31:02.382Z,94880.00
2018-04-08T10:32:02.272Z,90816.00
2018-04-08T10:33:02.287Z,91712.00
2018-04-08T10:34:02.275Z,95392.00
2018-04-08T10:35:02.310Z,92256.00
2018-04-08T10:36:02.270Z,87712.00
2018-04-08T10:37:02.322Z,91648.00
2018-04-08T10:38:03.179Z,96192.00
2018-04-08T10:39:02.258Z,94560.00
2018-04-08T10:40:02.323Z,91712.00
2018-04-08T10:41:02.288Z,89312.00
2018-04-08T10:42:02.338Z,87840.00
2018-04-08T10:43:02.320Z,83264.00
2018-04-08T10:44:02.328Z,73760.00
2018-04-08T10:45:02.359Z,80576.00
2018-04-08T10:46:02.345Z,84384.00
2018-04-08T10:47:02.311Z,75904.00
2018-04-08T10:48:02.319Z,69984.00
2018-04-08T10:49:02.365Z,66304.00
2018-04-08T10:50:02.328Z,65472.00
2018-04-08T10:51:02.320Z,58592.00
2018-04-08T10:52:02.336Z,51424.00
2018-04-08T10:53:02.332Z,53312.00
2018-04-08T10:54:02.420Z,58496.00
2018-04-08T10:55:02.393Z,63648.00
2018-04-08T10:56:02.373Z,72480.00
2018-04-08T10:57:02.433Z,83040.00
2018-04-08T10:58:02.441Z,89024.00
2018-04-08T10:59:02.424Z,91648.00
2018-04-08T11:00:02.407Z,91968.00
2018-04-08T11:01:02.372Z,90240.00
2018-04-08T11:02:02.421Z,88928.00
2018-04-08T11:03:02.390Z,92800.00
2018-04-08T11:04:02.396Z,97248.00
2018-04-08T11:05:02.439Z,89856.00
2018-04-08T11:06:03.116Z,89184.00
2018-04-08T11:07:02.470Z,93696.00
2018-04-08T11:08:02.441Z,90368.00
2018-04-08T11:09:02.462Z,86688.00
2018-04-08T11:10:02.447Z,80000.00
2018-04-08T11:11:02.457Z,79744.00
2018-04-08T11:12:02.461Z,84544.00
2018-04-08T11:13:02.458Z,87424.00
2018-04-08T11:14:02.480Z,89024.00
2018-04-08T11:15:02.461Z,87168.00
2018-04-08T11:16:02.520Z,85600.00
2018-04-08T11:17:02.486Z,86816.00
2018-04-08T11:18:02.514Z,87264.00
2018-04-08T11:19:02.531Z,87904.00
2018-04-08T11:20:02.534Z,92320.00
2018-04-08T11:21:02.533Z,86048.00
2018-04-08T11:22:02.513Z,80640.00
2018-04-08T11:23:02.520Z,88096.00
2018-04-08T11:24:02.579Z,85088.00
2018-04-08T11:25:03.330Z,76160.00
2018-04-08T11:26:02.565Z,81408.00
2018-04-08T11:27:02.547Z,87744.00
2018-04-08T11:28:02.582Z,83584.00
2018-04-08T11:29:02.569Z,77760.00
2018-04-08T11:30:02.560Z,80960.00
2018-04-08T11:31:02.605Z,87968.00
2018-04-08T11:32:02.544Z,86464.00
2018-04-08T11:33:02.566Z,85728.00
2018-04-08T11:34:02.762Z,87456.00
2018-04-08T11:35:02.578Z,91904.00
2018-04-08T11:36:02.622Z,94592.00
2018-04-08T11:37:02.731Z,91584.00
2018-04-08T11:38:02.621Z,93184.00
2018-04-08T11:39:03.224Z,92896.00
2018-04-08T11:40:02.644Z,92224.00
2018-04-08T11:41:02.638Z,91712.00
2018-04-08T11:42:02.628Z,92288.00
2018-04-08T11:43:02.659Z,92832.00
2018-04-08T11:44:02.633Z,91808.00
2018-04-08T11:45:02.674Z,92480.00
2018-04-08T11:46:03.610Z,94624.00
2018-04-08T11:47:02.645Z,94112.00
2018-04-08T11:48:02.804Z,94688.00
2018-04-08T11:49:02.668Z,98528.00
2018-04-08T11:50:02.664Z,94272.00
2018-04-08T11:51:02.704Z,91264.00
2018-04-08T11:52:02.696Z,95232.00
2018-04-08T11:53:02.698Z,97728.00
2018-04-08T11:54:02.681Z,94528.00
2018-04-08T11:55:02.700Z,91232.00
2018-04-08T11:56:02.707Z,87008.00
2018-04-08T11:57:02.718Z,86624.00
2018-04-08T11:58:02.720Z,91488.00
2018-04-08T11:59:02.748Z,91808.00
2018-04-08T12:00:02.723Z,91008.00
2018-04-08T12:01:02.743Z,93792.00
2018-04-08T12:02:02.892Z,97216.00
2018-04-08T12:03:02.777Z,99584.00
2018-04-08T12:04:03.156Z,98976.00
2018-04-08T12:05:02.823Z,99008.00
2018-04-08T12:06:02.794Z,98912.00
2018-04-08T12:07:02.845Z,97984.00
2018-04-08T12:08:03.925Z,99360.00
2018-04-08T12:09:02.806Z,100416.00
2018-04-08T12:10:02.813Z,98976.00
2018-04-08T12:11:02.926Z,97088.00
2018-04-08T12:12:03.116Z,94400.00
2018-04-08T12:13:02.886Z,87808.00
2018-04-08T12:14:02.850Z,86080.00
2018-04-08T12:15:02.956Z,91168.00
2018-04-08T12:16:02.921Z,88320.00
2018-04-08T12:17:02.865Z,89024.00
2018-04-08T12:18:02.970Z,93024.00
2018-04-08T12:19:03.032Z,92416.00
2018-04-08T12:20:03.525Z,91264.00
2018-04-08T12:21:02.936Z,93216.00
2018-04-08T12:22:03.021Z,97472.00
2018-04-08T12:23:02.978Z,97440.00
2018-04-08T12:24:02.892Z,94080.00
2018-04-08T12:25:02.946Z,94528.00
2018-04-08T12:26:03.005Z,93408.00
2018-04-08T12:27:02.895Z,96896.00
2018-04-08T12:28:02.880Z,97792.00